createdAt,value
2023-03-13T00:01:27.844Z,1.90
2023-03-13T00:03:55.616Z,1.50
2023-03-13T00:06:25.374Z,1.73
2023-03-13T00:08:55.063Z,1.80
2023-03-13T00:11:22.236Z,1.73
2023-03-13T00:13:54.458Z,1.70
2023-03-13T00:16:22.328Z,1.60
2023-03-13T00:18:54.469Z,1.63
2023-03-13T00:21:23.920Z,1.60
2023-03-13T00:23:51.154Z,1.60
2023-03-13T00:26:24.867Z,1.70
2023-03-13T00:28:53.179Z,2.05
2023-03-13T00:31:39.726Z,1.60
2023-03-13T00:34:09.110Z,1.73
2023-03-13T00:36:37.904Z,1.50
2023-03-13T00:39:06.334Z,1.75
2023-03-13T00:41:36.936Z,1.80
2023-03-13T00:44:06.011Z,1.80
2023-03-13T00:46:35.819Z,1.52
2023-03-13T00:49:06.339Z,1.90
2023-03-13T00:51:34.473Z,1.40
2023-03-13T00:54:01.579Z,1.80
2023-03-13T00:56:29.791Z,1.70
2023-03-13T00:59:00.235Z,1.70
2023-03-13T01:01:35.904Z,1.55
2023-03-13T01:04:10.254Z,1.88
2023-03-13T01:06:43.046Z,1.75
2023-03-13T01:09:13.749Z,1.55
2023-03-13T01:11:43.672Z,1.70
2023-03-13T01:14:17.132Z,1.70
2023-03-13T01:16:44.411Z,1.90
2023-03-13T01:19:16.683Z,1.75
2023-03-13T01:21:47.902Z,1.73
2023-03-13T01:24:19.145Z,1.65
2023-03-13T01:26:48.866Z,1.60
2023-03-13T01:29:16.486Z,1.50
2023-03-13T01:31:43.922Z,1.58
2023-03-13T01:34:11.427Z,1.50
2023-03-13T01:36:39.096Z,1.70
2023-03-13T01:39:07.329Z,1.65
2023-03-13T01:41:34.959Z,1.60
2023-03-13T01:44:04.653Z,1.60
2023-03-13T01:49:21.297Z,1.70
2023-03-13T01:52:04.983Z,1.90
2023-03-13T01:54:43.290Z,1.88
2023-03-13T01:57:37.596Z,1.38
2023-03-13T02:00:23.388Z,1.90
2023-03-13T02:02:59.915Z,1.80
2023-03-13T02:05:29.028Z,1.80
2023-03-13T02:08:18.963Z,1.60
2023-03-13T02:10:58.432Z,1.80
2023-03-13T02:13:26.564Z,1.90
2023-03-13T02:15:54.601Z,2.05
2023-03-13T02:18:26.015Z,1.80
2023-03-13T02:21:06.743Z,1.80
2023-03-13T02:23:41.310Z,1.67
2023-03-13T02:26:09.195Z,1.50
2023-03-13T02:29:01.840Z,1.40
2023-03-13T02:31:31.674Z,1.88
2023-03-13T02:34:02.517Z,1.53
2023-03-13T02:36:34.358Z,1.60
2023-03-13T02:39:06.138Z,1.70
2023-03-13T02:41:35.168Z,1.63
2023-03-13T02:44:02.361Z,1.75
2023-03-13T02:46:30.773Z,1.42
2023-03-13T02:48:59.114Z,1.67
2023-03-13T02:51:46.421Z,1.50
2023-03-13T02:54:23.369Z,1.52
2023-03-13T02:56:55.440Z,1.58
2023-03-13T02:59:23.426Z,1.65
2023-03-13T03:01:53.267Z,1.60
2023-03-13T03:04:23.245Z,2.00
2023-03-13T03:06:57.416Z,1.65
2023-03-13T03:09:25.674Z,1.60
2023-03-13T03:11:57.183Z,2.00
2023-03-13T03:14:29.933Z,1.70
2023-03-13T03:17:00.171Z,1.60
2023-03-13T03:19:27.839Z,1.70
2023-03-13T03:21:55.363Z,1.50
2023-03-13T03:24:22.763Z,1.77
2023-03-13T03:26:50.025Z,1.75
2023-03-13T03:29:24.044Z,1.48
2023-03-13T03:31:54.275Z,1.80
2023-03-13T03:34:22.356Z,1.60
2023-03-13T03:36:52.748Z,1.77
2023-03-13T03:39:20.257Z,1.80
2023-03-13T03:41:50.187Z,1.80
2023-03-13T03:44:17.700Z,1.40
2023-03-13T03:46:54.596Z,1.67
2023-03-13T03:49:23.125Z,1.70
2023-03-13T03:51:53.635Z,1.50
2023-03-13T03:54:29.317Z,1.55
2023-03-13T03:56:56.957Z,1.77
2023-03-13T03:59:26.451Z,1.67
2023-03-13T04:02:06.046Z,1.63
2023-03-13T04:04:34.568Z,1.85
2023-03-13T04:07:09.480Z,1.45
2023-03-13T04:09:39.238Z,1.48
2023-03-13T04:12:08.838Z,1.55
2023-03-13T04:14:42.627Z,1.33
2023-03-13T04:17:12.408Z,1.40
2023-03-13T04:19:39.656Z,1.52
2023-03-13T04:22:07.568Z,1.70
2023-03-13T04:24:34.980Z,1.70
2023-03-13T04:27:09.158Z,1.40
2023-03-13T04:29:36.285Z,1.80
2023-03-13T04:32:24.063Z,1.90
2023-03-13T04:35:03.865Z,1.80
2023-03-13T04:37:49.635Z,1.70
2023-03-13T04:40:47.287Z,1.80
2023-03-13T04:43:29.916Z,1.90
2023-03-13T04:46:06.690Z,1.88
2023-03-13T04:49:09.482Z,1.77
2023-03-13T04:51:48.791Z,1.90
2023-03-13T04:54:38.764Z,1.88
2023-03-13T04:57:20.453Z,1.75
2023-03-13T04:59:55.598Z,1.75
2023-03-13T05:02:36.189Z,1.92
2023-03-13T05:05:13.199Z,1.42
2023-03-13T05:07:59.508Z,1.70
2023-03-13T05:10:43.112Z,1.70
2023-03-13T05:13:29.397Z,1.70
2023-03-13T05:16:11.281Z,1.73
2023-03-13T05:18:57.382Z,1.48
2023-03-13T05:21:48.181Z,1.88
2023-03-13T05:24:38.354Z,1.77
2023-03-13T05:27:30.029Z,1.60
2023-03-13T05:30:38.338Z,1.60
2023-03-13T05:33:15.299Z,1.70
2023-03-13T05:35:47.999Z,1.67
2023-03-13T05:38:36.678Z,1.48
2023-03-13T05:41:21.443Z,1.50
2023-03-13T05:44:07.388Z,1.50
2023-03-13T05:46:50.937Z,1.60
2023-03-13T05:49:35.724Z,1.88
2023-03-13T05:52:33.394Z,1.33
2023-03-13T05:55:06.721Z,1.63
2023-03-13T05:57:59.137Z,1.50
2023-03-13T06:00:35.471Z,1.40
2023-03-13T06:03:21.896Z,1.40
2023-03-13T06:05:58.066Z,1.48
2023-03-13T06:08:57.829Z,1.45
2023-03-13T06:11:30.791Z,1.60
2023-03-13T06:13:58.385Z,1.48
2023-03-13T06:16:40.676Z,1.60
2023-03-13T06:19:22.442Z,1.40
2023-03-13T06:21:52.195Z,1.60
2023-03-13T06:24:19.394Z,1.42
2023-03-13T06:26:49.712Z,1.30
2023-03-13T06:29:18.513Z,1.42
2023-03-13T06:31:46.969Z,1.30
2023-03-13T06:34:14.282Z,1.10
2023-03-13T06:36:41.509Z,1.42
2023-03-13T06:39:09.688Z,1.30
2023-03-13T06:41:37.051Z,1.40
2023-03-13T06:44:05.072Z,1.30
2023-03-13T06:46:34.469Z,1.88
2023-03-13T06:49:07.397Z,1.40
2023-03-13T06:51:34.569Z,1.20
2023-03-13T06:54:03.623Z,1.60
2023-03-13T06:56:32.300Z,1.30
2023-03-13T06:59:02.516Z,1.30
2023-03-13T07:01:32.025Z,1.42
2023-03-13T07:04:02.440Z,1.30
2023-03-13T07:06:29.651Z,1.00
2023-03-13T07:08:59.076Z,1.00
2023-03-13T07:11:26.528Z,1.35
2023-03-13T07:14:10.004Z,1.10
2023-03-13T07:16:45.574Z,1.55
2023-03-13T07:19:15.810Z,1.17
2023-03-13T07:21:48.292Z,1.30
2023-03-13T07:24:15.752Z,1.50
2023-03-13T07:26:54.478Z,1.20
2023-03-13T07:29:30.622Z,1.23
2023-03-13T07:31:58.041Z,1.40
2023-03-13T07:34:25.276Z,1.13
2023-03-13T07:36:52.481Z,1.33
2023-03-13T07:39:19.674Z,1.23
2023-03-13T07:41:47.153Z,1.30
2023-03-13T07:44:17.124Z,1.27
2023-03-13T07:46:50.199Z,1.13
2023-03-13T07:49:17.656Z,1.25
2023-03-13T07:51:47.647Z,1.50
2023-03-13T07:54:17.307Z,2.28
2023-03-13T07:56:44.456Z,3.72
2023-03-13T07:59:11.774Z,3.05
2023-03-13T08:01:38.984Z,2.78
2023-03-13T08:04:14.021Z,2.60
2023-03-13T08:06:42.057Z,2.67
2023-03-13T08:09:16.626Z,2.20
2023-03-13T08:11:48.977Z,2.40
2023-03-13T08:14:16.585Z,1.83
2023-03-13T08:16:49.182Z,1.60
2023-03-13T08:19:17.641Z,1.67
2023-03-13T08:21:44.871Z,1.45
2023-03-13T08:24:12.964Z,1.50
2023-03-13T08:26:44.332Z,1.27
2023-03-13T08:29:15.530Z,1.52
2023-03-13T08:31:48.022Z,1.27
2023-03-13T08:34:17.547Z,1.50
2023-03-13T08:36:46.053Z,1.20
2023-03-13T08:39:19.802Z,1.10
2023-03-13T08:41:49.695Z,1.25
2023-03-13T08:44:20.684Z,1.30
2023-03-13T08:46:49.266Z,1.00
2023-03-13T08:49:17.670Z,1.40
2023-03-13T08:51:45.300Z,0.90
2023-03-13T08:54:17.861Z,1.00
2023-03-13T08:56:45.268Z,0.88
2023-03-13T08:59:15.671Z,1.27
2023-03-13T09:01:47.828Z,1.50
2023-03-13T09:04:15.081Z,0.80
2023-03-13T09:06:42.579Z,1.45
2023-03-13T09:09:13.090Z,1.33
2023-03-13T09:11:40.326Z,1.10
2023-03-13T09:14:08.332Z,1.25
2023-03-13T09:16:35.612Z,1.30
2023-03-13T09:19:05.513Z,1.13
2023-03-13T09:21:36.099Z,1.13
2023-03-13T09:24:03.804Z,1.33
2023-03-13T09:26:30.963Z,1.10
2023-03-13T09:29:00.514Z,1.20
2023-03-13T09:31:32.754Z,0.93
2023-03-13T09:34:01.140Z,1.10
2023-03-13T09:36:31.034Z,1.00
2023-03-13T09:38:59.792Z,0.70
2023-03-13T09:41:35.737Z,1.10
2023-03-13T09:44:20.678Z,1.35
2023-03-13T09:46:54.023Z,1.00
2023-03-13T09:49:46.419Z,1.02
2023-03-13T09:52:19.494Z,1.08
2023-03-13T09:57:26.563Z,1.00
2023-03-13T10:00:12.383Z,1.40
2023-03-13T10:02:44.110Z,1.35
2023-03-13T10:05:17.940Z,1.70
2023-03-13T10:12:25.864Z,1.60
2023-03-13T10:31:55.712Z,1.60
2023-03-13T10:34:44.825Z,1.38
2023-03-13T10:39:47.092Z,1.50
2023-03-13T10:42:21.099Z,1.58
2023-03-13T10:44:55.486Z,2.00
2023-03-13T10:47:23.212Z,1.73
2023-03-13T10:49:58.780Z,2.10
2023-03-13T10:52:31.184Z,2.20
2023-03-13T10:55:05.575Z,1.90
2023-03-13T10:57:37.949Z,2.00
2023-03-13T11:00:25.233Z,1.90
2023-03-13T11:02:53.960Z,1.70
2023-03-13T11:05:31.756Z,2.05
2023-03-13T11:08:10.849Z,2.03
2023-03-13T11:10:55.664Z,2.15
2023-03-13T11:13:43.311Z,1.85
2023-03-13T11:16:26.656Z,1.88
2023-03-13T11:19:12.786Z,2.10
2023-03-13T11:21:57.395Z,1.75
2023-03-13T11:24:27.780Z,2.10
2023-03-13T11:27:07.906Z,1.42
2023-03-13T11:29:43.706Z,1.63
2023-03-13T11:32:23.167Z,1.70
2023-03-13T11:35:12.592Z,1.95
2023-03-13T11:38:13.685Z,1.60
2023-03-13T11:40:51.794Z,1.50
2023-03-13T11:43:29.082Z,1.83
2023-03-13T11:46:17.981Z,1.60
2023-03-13T11:49:07.293Z,1.75
2023-03-13T11:52:09.876Z,1.75
2023-03-13T11:55:07.259Z,1.52
2023-03-13T11:57:45.582Z,1.70
2023-03-13T12:00:22.966Z,1.42
2023-03-13T12:03:04.854Z,1.45
2023-03-13T12:05:46.218Z,1.50
2023-03-13T12:08:23.181Z,1.60
2023-03-13T12:11:17.067Z,1.58
2023-03-13T12:13:57.235Z,2.00
2023-03-13T12:16:36.117Z,1.40
2023-03-13T12:19:03.328Z,1.63
2023-03-13T12:21:39.511Z,1.63
2023-03-13T12:24:27.676Z,1.77
2023-03-13T12:27:21.897Z,1.40
2023-03-13T12:30:28.843Z,1.63
2023-03-13T12:33:01.991Z,1.50
2023-03-13T12:35:34.390Z,1.67
2023-03-13T12:38:20.883Z,1.40
2023-03-13T12:40:51.772Z,1.40
2023-03-13T12:43:23.739Z,1.70
2023-03-13T12:46:04.416Z,1.88
2023-03-13T12:49:06.601Z,1.30
2023-03-13T12:51:34.077Z,1.35
2023-03-13T12:54:28.256Z,1.35
2023-03-13T12:57:35.551Z,1.42
2023-03-13T13:00:07.679Z,1.42
2023-03-13T13:02:34.944Z,1.40
2023-03-13T13:05:03.234Z,1.25
2023-03-13T13:07:33.331Z,1.52
2023-03-13T13:10:09.358Z,1.80
2023-03-13T13:12:38.918Z,1.60
2023-03-13T13:15:20.505Z,1.60
2023-03-13T13:18:13.746Z,1.63
2023-03-13T13:20:45.092Z,1.50
2023-03-13T13:23:25.402Z,2.08
2023-03-13T13:25:56.622Z,1.45
2023-03-13T13:28:32.629Z,1.70
2023-03-13T13:31:01.595Z,1.60
2023-03-13T13:33:30.958Z,1.83
2023-03-13T13:36:11.158Z,1.42
2023-03-13T13:38:46.292Z,1.70
2023-03-13T13:41:13.457Z,1.52
2023-03-13T13:43:48.460Z,1.92
2023-03-13T13:46:29.903Z,1.60
2023-03-13T13:49:09.203Z,1.40
2023-03-13T13:52:02.550Z,1.60
2023-03-13T13:54:32.786Z,1.77
2023-03-13T13:57:20.431Z,1.77
2023-03-13T13:59:51.463Z,1.30
2023-03-13T14:02:34.216Z,1.60
2023-03-13T14:05:05.153Z,1.48
2023-03-13T14:07:45.300Z,1.50
2023-03-13T14:10:38.067Z,1.65
2023-03-13T14:13:22.665Z,1.27
2023-03-13T14:15:54.928Z,1.35
2023-03-13T14:18:26.113Z,1.42
2023-03-13T14:21:00.146Z,1.63
2023-03-13T14:23:36.051Z,1.30
2023-03-13T14:26:31.105Z,1.80
2023-03-13T14:29:07.848Z,1.33
2023-03-13T14:31:38.421Z,1.48
2023-03-13T14:34:13.681Z,1.40
2023-03-13T14:37:01.432Z,1.30
2023-03-13T14:39:45.844Z,1.52
2023-03-13T14:42:17.881Z,1.63
2023-03-13T14:44:50.480Z,1.37
2023-03-13T14:47:30.935Z,1.33
2023-03-13T14:50:19.067Z,1.70
2023-03-13T14:52:59.414Z,1.52
2023-03-13T14:55:36.700Z,1.35
2023-03-13T14:58:30.693Z,1.20
2023-03-13T15:01:13.865Z,1.50
2023-03-13T15:06:24.141Z,1.70
2023-03-13T15:09:12.058Z,1.40
2023-03-13T15:11:54.868Z,1.80
2023-03-13T15:14:42.465Z,1.50
2023-03-13T15:17:19.065Z,1.98
2023-03-13T15:19:58.994Z,1.52
2023-03-13T15:22:33.428Z,1.50
2023-03-13T15:25:08.587Z,1.60
2023-03-13T15:27:37.061Z,1.65
2023-03-13T15:30:05.120Z,1.77
2023-03-13T15:32:35.986Z,1.55
2023-03-13T15:35:32.498Z,1.33
2023-03-13T15:38:02.359Z,1.67
2023-03-13T15:40:31.097Z,1.20
2023-03-13T15:42:59.622Z,1.40
2023-03-13T15:45:28.129Z,1.60
2023-03-13T15:47:55.587Z,1.30
2023-03-13T15:50:29.586Z,1.80
2023-03-13T15:53:01.012Z,1.23
2023-03-13T15:55:30.204Z,1.35
2023-03-13T15:57:58.440Z,1.38
2023-03-13T16:00:28.069Z,1.60
2023-03-13T16:02:55.406Z,1.40
2023-03-13T16:05:22.650Z,1.30
2023-03-13T16:07:52.998Z,1.30
2023-03-13T16:10:28.471Z,1.20
2023-03-13T16:12:55.861Z,1.42
2023-03-13T16:15:25.707Z,1.42
2023-03-13T16:17:52.864Z,1.70
2023-03-13T16:20:24.934Z,1.38
2023-03-13T16:22:53.756Z,1.50
2023-03-13T16:25:22.873Z,1.50
2023-03-13T16:27:50.558Z,1.20
2023-03-13T16:30:23.069Z,1.50
2023-03-13T16:32:53.493Z,1.30
2023-03-13T16:35:23.913Z,1.20
2023-03-13T16:37:52.042Z,1.35
2023-03-13T16:40:24.198Z,1.20
2023-03-13T16:42:52.655Z,1.23
2023-03-13T16:45:21.513Z,1.50
2023-03-13T16:47:49.836Z,1.40
2023-03-13T16:50:36.347Z,1.30
2023-03-13T16:53:06.039Z,1.45
2023-03-13T16:55:36.756Z,1.40
2023-03-13T16:58:12.505Z,1.30
2023-03-13T17:00:39.856Z,1.20
2023-03-13T17:03:07.376Z,1.52
2023-03-13T17:05:35.095Z,1.30
2023-03-13T17:08:02.679Z,1.35
2023-03-13T17:10:32.091Z,1.50
2023-03-13T17:12:59.544Z,1.30
2023-03-13T17:15:31.243Z,1.30
2023-03-13T17:17:58.954Z,1.70
2023-03-13T17:20:28.404Z,1.92
2023-03-13T17:22:58.054Z,1.65
2023-03-13T17:25:25.338Z,1.60
2023-03-13T17:27:52.871Z,1.50
2023-03-13T17:30:24.919Z,1.60
2023-03-13T17:32:53.549Z,2.33
2023-03-13T17:35:21.423Z,1.70
2023-03-13T17:37:49.595Z,1.70
2023-03-13T17:40:21.986Z,1.77
2023-03-13T17:42:49.889Z,1.38
2023-03-13T17:45:20.368Z,1.73
2023-03-13T17:47:49.148Z,1.83
2023-03-13T17:50:26.408Z,1.60
2023-03-13T17:52:54.648Z,1.67
2023-03-13T17:55:22.845Z,1.92
2023-03-13T17:57:52.118Z,1.83
2023-03-13T18:00:22.255Z,1.80
2023-03-13T18:02:50.202Z,2.00
2023-03-13T18:05:18.267Z,1.83
2023-03-13T18:07:45.961Z,2.00
2023-03-13T18:10:25.715Z,1.90
2023-03-13T18:12:56.439Z,1.88
2023-03-13T18:15:26.110Z,1.80
2023-03-13T18:17:53.744Z,1.60
2023-03-13T18:20:27.513Z,1.70
2023-03-13T18:22:59.427Z,1.98
2023-03-13T18:25:30.240Z,1.85
2023-03-13T18:27:59.095Z,1.88
2023-03-13T18:30:26.859Z,1.60
2023-03-13T18:32:54.454Z,2.03
2023-03-13T18:35:21.860Z,1.85
2023-03-13T18:37:48.968Z,1.77
2023-03-13T18:40:25.358Z,1.65
2023-03-13T18:42:55.048Z,1.70
2023-03-13T18:45:26.877Z,2.35
2023-03-13T18:47:54.269Z,1.80
2023-03-13T18:50:28.571Z,1.67
2023-03-13T18:52:57.399Z,1.70
2023-03-13T18:55:26.301Z,1.88
2023-03-13T18:57:56.134Z,1.90
2023-03-13T19:00:27.692Z,1.63
2023-03-13T19:02:55.907Z,1.60
2023-03-13T19:05:25.883Z,1.80
2023-03-13T19:07:53.104Z,1.90
2023-03-13T19:10:27.228Z,1.85
2023-03-13T19:12:58.153Z,1.77
2023-03-13T19:15:30.999Z,1.92
2023-03-13T19:18:03.233Z,1.60
2023-03-13T19:20:31.251Z,1.80
2023-03-13T19:23:00.644Z,1.52
2023-03-13T19:25:29.370Z,1.90
2023-03-13T19:27:56.790Z,1.77
2023-03-13T19:30:25.662Z,1.48
2023-03-13T19:32:53.131Z,1.80
2023-03-13T19:35:22.070Z,1.90
2023-03-13T19:37:51.804Z,1.88
2023-03-13T19:40:26.009Z,1.90
2023-03-13T19:42:53.286Z,1.92
2023-03-13T19:45:22.148Z,1.95
2023-03-13T19:47:50.338Z,2.05
2023-03-13T19:50:21.229Z,1.73
2023-03-13T19:52:49.019Z,1.80
2023-03-13T19:55:16.491Z,1.77
2023-03-13T19:57:44.076Z,1.80
2023-03-13T20:00:33.487Z,1.98
2023-03-13T20:03:00.849Z,1.70
2023-03-13T20:05:28.382Z,1.88
2023-03-13T20:07:55.707Z,2.10
2023-03-13T20:10:23.525Z,1.98
2023-03-13T20:12:53.483Z,1.55
2023-03-13T20:15:21.139Z,1.73
2023-03-13T20:17:48.442Z,1.85
2023-03-13T20:20:16.263Z,1.90
2023-03-13T20:22:45.959Z,1.80
2023-03-13T20:25:13.405Z,1.65
2023-03-13T20:27:40.985Z,1.67
2023-03-13T20:30:09.409Z,1.95
2023-03-13T20:32:53.035Z,1.90
2023-03-13T20:35:29.939Z,1.92
2023-03-13T20:38:01.747Z,1.75
2023-03-13T20:40:35.642Z,1.60
2023-03-13T20:43:03.251Z,1.70
2023-03-13T20:45:31.920Z,1.65
2023-03-13T20:47:59.251Z,1.70
2023-03-13T20:50:33.446Z,1.70
2023-03-13T20:53:05.273Z,1.70
2023-03-13T20:55:32.780Z,1.77
2023-03-13T20:58:00.294Z,1.60
2023-03-13T21:00:27.823Z,1.67
2023-03-13T21:02:55.051Z,1.73
2023-03-13T21:05:22.640Z,1.67
2023-03-13T21:07:50.132Z,1.80
2023-03-13T21:10:18.348Z,1.80
2023-03-13T21:12:45.542Z,1.58
2023-03-13T21:15:13.556Z,1.80
2023-03-13T21:17:45.883Z,1.52
2023-03-13T21:20:14.201Z,1.40
2023-03-13T21:22:43.190Z,1.70
2023-03-13T21:25:11.938Z,1.67
2023-03-13T21:27:39.340Z,1.48
2023-03-13T21:30:07.970Z,1.65
2023-03-13T21:32:39.913Z,1.70
2023-03-13T21:35:10.893Z,1.70
2023-03-13T21:37:38.851Z,1.50
2023-03-13T21:40:08.755Z,1.77
2023-03-13T21:42:38.785Z,1.70
2023-03-13T21:45:07.729Z,1.50
2023-03-13T21:47:40.452Z,1.95
2023-03-13T21:50:09.953Z,1.45
2023-03-13T21:52:40.876Z,1.50
2023-03-13T21:55:12.784Z,1.88
2023-03-13T21:57:42.552Z,1.60
2023-03-13T22:00:14.297Z,1.85
2023-03-13T22:02:44.438Z,1.70
2023-03-13T22:05:16.823Z,1.40
2023-03-13T22:07:45.339Z,1.30
2023-03-13T22:10:13.846Z,1.58
2023-03-13T22:12:41.083Z,1.60
2023-03-13T22:15:09.076Z,1.40
2023-03-13T22:17:36.474Z,1.48
2023-03-13T22:20:05.121Z,1.20
2023-03-13T22:22:32.681Z,1.30
2023-03-13T22:24:59.935Z,1.60
2023-03-13T22:27:28.584Z,1.80
2023-03-13T22:29:57.069Z,1.42
2023-03-13T22:32:25.771Z,1.40
2023-03-13T22:34:55.250Z,1.30
2023-03-13T22:37:26.774Z,1.50
2023-03-13T22:39:54.574Z,1.60
2023-03-13T22:42:24.781Z,1.40
2023-03-13T22:44:57.119Z,1.27
2023-03-13T22:47:25.898Z,1.35
2023-03-13T22:49:53.762Z,1.50
2023-03-13T22:52:29.127Z,1.38
2023-03-13T22:54:59.265Z,1.23
2023-03-13T22:57:29.118Z,1.30
2023-03-13T23:00:02.669Z,1.60
2023-03-13T23:02:30.649Z,1.40
2023-03-13T23:05:01.082Z,1.60
2023-03-13T23:07:32.580Z,1.27
2023-03-13T23:10:00.020Z,1.20
2023-03-13T23:12:30.668Z,1.20
2023-03-13T23:15:00.597Z,1.33
2023-03-13T23:17:34.386Z,1.58
2023-03-13T23:20:09.485Z,1.20
2023-03-13T23:22:36.820Z,1.27
2023-03-13T23:25:07.509Z,1.38
2023-03-13T23:27:35.174Z,1.60
2023-03-13T23:30:04.207Z,1.20
2023-03-13T23:32:36.941Z,1.27
2023-03-13T23:35:05.316Z,1.25
2023-03-13T23:37:34.508Z,1.45
2023-03-13T23:40:08.195Z,1.15
2023-03-13T23:42:35.841Z,1.48
2023-03-13T23:45:05.483Z,1.40
2023-03-13T23:47:33.762Z,1.25
2023-03-13T23:50:02.841Z,1.27
2023-03-13T23:52:36.037Z,1.40
2023-03-13T23:55:06.238Z,1.10
2023-03-13T23:57:42.052Z,1.20
